sensor_id;sensor_type;location;lat;lon;timestamp;P1;durP1;ratioP1;P2;durP2;ratioP2
12469;SDS011;36499;46.484;13.832;2023-11-18T00:02:00;5.23;;;2.23;;
12469;SDS011;36499;46.484;13.832;2023-11-18T00:04:27;7.13;;;2.47;;
12469;SDS011;36499;46.484;13.832;2023-11-18T00:06:54;6.60;;;2.63;;
12469;SDS011;36499;46.484;13.832;2023-11-18T00:09:22;8.77;;;2.90;;
12469;SDS011;36499;46.484;13.832;2023-11-18T00:11:49;3.70;;;1.90;;
12469;SDS011;36499;46.484;13.832;2023-11-18T00:14:16;5.80;;;2.03;;
12469;SDS011;36499;46.484;13.832;2023-11-18T00:16:43;5.80;;;2.13;;
12469;SDS011;36499;46.484;13.832;2023-11-18T00:19:12;3.83;;;1.77;;
12469;SDS011;36499;46.484;13.832;2023-11-18T00:21:39;5.03;;;1.83;;
12469;SDS011;36499;46.484;13.832;2023-11-18T00:24:07;3.07;;;1.57;;
12469;SDS011;36499;46.484;13.832;2023-11-18T00:26:34;2.30;;;1.60;;
12469;SDS011;36499;46.484;13.832;2023-11-18T00:29:01;2.27;;;1.60;;
12469;SDS011;36499;46.484;13.832;2023-11-18T00:31:28;2.93;;;1.70;;
12469;SDS011;36499;46.484;13.832;2023-11-18T00:33:55;3.67;;;1.90;;
12469;SDS011;36499;46.484;13.832;2023-11-18T00:36:23;2.73;;;1.60;;
12469;SDS011;36499;46.484;13.832;2023-11-18T00:38:50;2.30;;;1.50;;
12469;SDS011;36499;46.484;13.832;2023-11-18T00:41:17;5.03;;;2.10;;
12469;SDS011;36499;46.484;13.832;2023-11-18T00:43:43;2.37;;;1.83;;
12469;SDS011;36499;46.484;13.832;2023-11-18T00:46:10;2.67;;;1.80;;
12469;SDS011;36499;46.484;13.832;2023-11-18T00:48:37;3.03;;;1.67;;
12469;SDS011;36499;46.484;13.832;2023-11-18T00:51:05;3.03;;;1.60;;
12469;SDS011;36499;46.484;13.832;2023-11-18T00:53:34;2.97;;;1.73;;
12469;SDS011;36499;46.484;13.832;2023-11-18T00:56:00;2.50;;;1.60;;
12469;SDS011;36499;46.484;13.832;2023-11-18T00:58:27;2.20;;;1.63;;
12469;SDS011;36499;46.484;13.832;2023-11-18T01:00:55;3.93;;;2.10;;
12469;SDS011;36499;46.484;13.832;2023-11-18T01:03:21;4.33;;;1.90;;
12469;SDS011;36499;46.484;13.832;2023-11-18T01:05:48;2.67;;;1.40;;
12469;SDS011;36499;46.484;13.832;2023-11-18T01:08:15;3.77;;;2.10;;
12469;SDS011;36499;46.484;13.832;2023-11-18T01:10:43;4.03;;;2.23;;
12469;SDS011;36499;46.484;13.832;2023-11-18T01:13:10;3.87;;;1.97;;
12469;SDS011;36499;46.484;13.832;2023-11-18T01:15:37;2.40;;;1.70;;
12469;SDS011;36499;46.484;13.832;2023-11-18T01:18:04;2.77;;;1.53;;
12469;SDS011;36499;46.484;13.832;2023-11-18T01:20:31;5.63;;;1.70;;
12469;SDS011;36499;46.484;13.832;2023-11-18T01:22:58;4.07;;;1.87;;
12469;SDS011;36499;46.484;13.832;2023-11-18T01:25:25;3.37;;;1.77;;
12469;SDS011;36499;46.484;13.832;2023-11-18T01:27:53;5.67;;;1.70;;
12469;SDS011;36499;46.484;13.832;2023-11-18T01:30:20;1.20;;;1.00;;
12469;SDS011;36499;46.484;13.832;2023-11-18T01:32:48;1.67;;;1.00;;
12469;SDS011;36499;46.484;13.832;2023-11-18T01:35:15;1.60;;;1.10;;
12469;SDS011;36499;46.484;13.832;2023-11-18T01:37:42;2.30;;;1.20;;
12469;SDS011;36499;46.484;13.832;2023-11-18T01:40:09;1.77;;;1.17;;
12469;SDS011;36499;46.484;13.832;2023-11-18T01:42:38;1.90;;;1.20;;
12469;SDS011;36499;46.484;13.832;2023-11-18T01:45:09;1.80;;;0.93;;
12469;SDS011;36499;46.484;13.832;2023-11-18T01:47:37;2.20;;;1.50;;
12469;SDS011;36499;46.484;13.832;2023-11-18T01:50:05;1.50;;;1.07;;
12469;SDS011;36499;46.484;13.832;2023-11-18T01:52:34;1.60;;;1.00;;
12469;SDS011;36499;46.484;13.832;2023-11-18T01:55:01;1.37;;;0.93;;
12469;SDS011;36499;46.484;13.832;2023-11-18T01:57:31;2.80;;;1.20;;
12469;SDS011;36499;46.484;13.832;2023-11-18T01:59:58;2.37;;;1.37;;
12469;SDS011;36499;46.484;13.832;2023-11-18T02:02:27;1.43;;;0.90;;
12469;SDS011;36499;46.484;13.832;2023-11-18T02:04:53;1.23;;;0.80;;
12469;SDS011;36499;46.484;13.832;2023-11-18T02:07:20;3.80;;;1.27;;
12469;SDS011;36499;46.484;13.832;2023-11-18T02:09:47;2.67;;;1.20;;
12469;SDS011;36499;46.484;13.832;2023-11-18T02:12:19;1.90;;;0.90;;
12469;SDS011;36499;46.484;13.832;2023-11-18T02:14:49;6.50;;;2.20;;
12469;SDS011;36499;46.484;13.832;2023-11-18T02:17:17;0.83;;;0.80;;
12469;SDS011;36499;46.484;13.832;2023-11-18T02:19:49;2.30;;;1.03;;
12469;SDS011;36499;46.484;13.832;2023-11-18T02:22:17;0.73;;;0.70;;
12469;SDS011;36499;46.484;13.832;2023-11-18T02:24:44;1.03;;;0.90;;
12469;SDS011;36499;46.484;13.832;2023-11-18T02:27:13;1.07;;;0.97;;
12469;SDS011;36499;46.484;13.832;2023-11-18T02:29:40;2.67;;;1.00;;
12469;SDS011;36499;46.484;13.832;2023-11-18T02:32:20;2.77;;;1.20;;
12469;SDS011;36499;46.484;13.832;2023-11-18T02:34:53;2.37;;;0.90;;
12469;SDS011;36499;46.484;13.832;2023-11-18T02:37:24;1.10;;;1.00;;
12469;SDS011;36499;46.484;13.832;2023-11-18T02:39:58;2.90;;;1.50;;
12469;SDS011;36499;46.484;13.832;2023-11-18T02:42:34;1.20;;;1.00;;
12469;SDS011;36499;46.484;13.832;2023-11-18T02:45:03;1.50;;;1.17;;
12469;SDS011;36499;46.484;13.832;2023-11-18T02:47:33;2.50;;;1.53;;
12469;SDS011;36499;46.484;13.832;2023-11-18T02:50:00;2.30;;;1.40;;
12469;SDS011;36499;46.484;13.832;2023-11-18T02:52:35;1.67;;;1.13;;
12469;SDS011;36499;46.484;13.832;2023-11-18T02:55:03;1.80;;;1.00;;
12469;SDS011;36499;46.484;13.832;2023-11-18T02:57:31;1.27;;;0.97;;
12469;SDS011;36499;46.484;13.832;2023-11-18T03:00:00;1.53;;;1.20;;
12469;SDS011;36499;46.484;13.832;2023-11-18T03:02:28;1.87;;;1.20;;
12469;SDS011;36499;46.484;13.832;2023-11-18T03:04:56;2.67;;;1.20;;
12469;SDS011;36499;46.484;13.832;2023-11-18T03:07:22;1.80;;;0.93;;
12469;SDS011;36499;46.484;13.832;2023-11-18T03:09:49;0.97;;;0.80;;
12469;SDS011;36499;46.484;13.832;2023-11-18T03:12:16;1.27;;;1.00;;
12469;SDS011;36499;46.484;13.832;2023-11-18T03:14:43;1.00;;;0.90;;
12469;SDS011;36499;46.484;13.832;2023-11-18T03:17:11;2.07;;;0.97;;
12469;SDS011;36499;46.484;13.832;2023-11-18T03:19:38;2.13;;;1.43;;
12469;SDS011;36499;46.484;13.832;2023-11-18T03:22:06;2.50;;;1.10;;
12469;SDS011;36499;46.484;13.832;2023-11-18T03:24:33;2.50;;;1.37;;
12469;SDS011;36499;46.484;13.832;2023-11-18T03:27:00;1.90;;;1.10;;
12469;SDS011;36499;46.484;13.832;2023-11-18T03:29:26;2.40;;;1.43;;
12469;SDS011;36499;46.484;13.832;2023-11-18T03:31:54;1.40;;;0.80;;
12469;SDS011;36499;46.484;13.832;2023-11-18T03:34:22;4.00;;;1.67;;
12469;SDS011;36499;46.484;13.832;2023-11-18T03:36:49;2.67;;;1.47;;
12469;SDS011;36499;46.484;13.832;2023-11-18T03:39:16;2.90;;;1.20;;
12469;SDS011;36499;46.484;13.832;2023-11-18T03:41:43;2.77;;;1.10;;
12469;SDS011;36499;46.484;13.832;2023-11-18T03:44:10;4.47;;;1.60;;
12469;SDS011;36499;46.484;13.832;2023-11-18T03:46:38;3.00;;;1.70;;
12469;SDS011;36499;46.484;13.832;2023-11-18T03:49:06;4.13;;;1.43;;
12469;SDS011;36499;46.484;13.832;2023-11-18T03:51:34;4.17;;;1.87;;
12469;SDS011;36499;46.484;13.832;2023-11-18T03:54:01;1.80;;;1.10;;
12469;SDS011;36499;46.484;13.832;2023-11-18T03:56:27;1.40;;;0.80;;
12469;SDS011;36499;46.484;13.832;2023-11-18T03:58:54;1.73;;;1.10;;
12469;SDS011;36499;46.484;13.832;2023-11-18T04:01:21;3.03;;;1.43;;
12469;SDS011;36499;46.484;13.832;2023-11-18T04:03:48;2.40;;;1.50;;
12469;SDS011;36499;46.484;13.832;2023-11-18T04:06:15;1.47;;;1.17;;
12469;SDS011;36499;46.484;13.832;2023-11-18T04:08:44;1.40;;;1.00;;
12469;SDS011;36499;46.484;13.832;2023-11-18T04:11:11;1.10;;;0.77;;
12469;SDS011;36499;46.484;13.832;2023-11-18T04:13:39;1.93;;;1.23;;
12469;SDS011;36499;46.484;13.832;2023-11-18T04:16:07;1.83;;;1.30;;
12469;SDS011;36499;46.484;13.832;2023-11-18T04:18:38;3.60;;;1.20;;
12469;SDS011;36499;46.484;13.832;2023-11-18T04:21:05;0.93;;;0.83;;
12469;SDS011;36499;46.484;13.832;2023-11-18T04:23:33;0.80;;;0.80;;
12469;SDS011;36499;46.484;13.832;2023-11-18T04:26:01;2.83;;;0.90;;
12469;SDS011;36499;46.484;13.832;2023-11-18T04:28:28;1.53;;;0.80;;
12469;SDS011;36499;46.484;13.832;2023-11-18T04:30:55;2.67;;;1.23;;
12469;SDS011;36499;46.484;13.832;2023-11-18T04:33:22;0.70;;;0.70;;
12469;SDS011;36499;46.484;13.832;2023-11-18T04:35:49;0.73;;;0.70;;
12469;SDS011;36499;46.484;13.832;2023-11-18T04:38:16;0.97;;;0.77;;
12469;SDS011;36499;46.484;13.832;2023-11-18T04:40:43;2.03;;;0.53;;
12469;SDS011;36499;46.484;13.832;2023-11-18T04:43:12;0.60;;;0.60;;
12469;SDS011;36499;46.484;13.832;2023-11-18T04:45:39;0.73;;;0.60;;
12469;SDS011;36499;46.484;13.832;2023-11-18T04:48:05;1.30;;;1.00;;
12469;SDS011;36499;46.484;13.832;2023-11-18T04:50:32;3.30;;;0.97;;
12469;SDS011;36499;46.484;13.832;2023-11-18T04:52:59;4.57;;;1.63;;
12469;SDS011;36499;46.484;13.832;2023-11-18T04:55:27;3.17;;;1.23;;
12469;SDS011;36499;46.484;13.832;2023-11-18T04:57:54;1.73;;;1.00;;
12469;SDS011;36499;46.484;13.832;2023-11-18T05:00:23;1.47;;;1.20;;
12469;SDS011;36499;46.484;13.832;2023-11-18T05:02:49;2.67;;;1.40;;
12469;SDS011;36499;46.484;13.832;2023-11-18T05:05:16;6.20;;;2.20;;
12469;SDS011;36499;46.484;13.832;2023-11-18T05:07:44;3.73;;;1.83;;
12469;SDS011;36499;46.484;13.832;2023-11-18T05:10:11;6.90;;;2.67;;
12469;SDS011;36499;46.484;13.832;2023-11-18T05:12:38;7.93;;;2.30;;
12469;SDS011;36499;46.484;13.832;2023-11-18T05:15:05;7.87;;;2.20;;
12469;SDS011;36499;46.484;13.832;2023-11-18T05:17:35;4.97;;;1.97;;
12469;SDS011;36499;46.484;13.832;2023-11-18T05:20:02;3.67;;;1.53;;
12469;SDS011;36499;46.484;13.832;2023-11-18T05:22:29;3.07;;;1.60;;
12469;SDS011;36499;46.484;13.832;2023-11-18T05:24:57;2.80;;;1.60;;
12469;SDS011;36499;46.484;13.832;2023-11-18T05:27:24;2.40;;;1.43;;
12469;SDS011;36499;46.484;13.832;2023-11-18T05:29:51;2.17;;;1.30;;
12469;SDS011;36499;46.484;13.832;2023-11-18T05:32:20;2.43;;;1.20;;
12469;SDS011;36499;46.484;13.832;2023-11-18T05:34:49;2.57;;;1.50;;
12469;SDS011;36499;46.484;13.832;2023-11-18T05:37:18;1.40;;;1.17;;
12469;SDS011;36499;46.484;13.832;2023-11-18T05:39:45;1.43;;;1.10;;
12469;SDS011;36499;46.484;13.832;2023-11-18T05:42:14;1.40;;;1.10;;
12469;SDS011;36499;46.484;13.832;2023-11-18T05:44:41;2.47;;;1.33;;
12469;SDS011;36499;46.484;13.832;2023-11-18T05:47:08;2.77;;;0.97;;
12469;SDS011;36499;46.484;13.832;2023-11-18T05:49:36;1.40;;;1.10;;
12469;SDS011;36499;46.484;13.832;2023-11-18T05:52:05;1.77;;;1.10;;
12469;SDS011;36499;46.484;13.832;2023-11-18T05:54:32;3.57;;;1.70;;
12469;SDS011;36499;46.484;13.832;2023-11-18T05:56:58;1.67;;;1.30;;
12469;SDS011;36499;46.484;13.832;2023-11-18T05:59:25;2.93;;;1.70;;
12469;SDS011;36499;46.484;13.832;2023-11-18T06:01:53;3.80;;;1.20;;
12469;SDS011;36499;46.484;13.832;2023-11-18T06:04:22;2.73;;;1.40;;
12469;SDS011;36499;46.484;13.832;2023-11-18T06:06:48;3.93;;;1.30;;
12469;SDS011;36499;46.484;13.832;2023-11-18T06:09:16;7.97;;;1.63;;
12469;SDS011;36499;46.484;13.832;2023-11-18T06:11:46;4.77;;;3.13;;
12469;SDS011;36499;46.484;13.832;2023-11-18T06:14:14;3.40;;;1.77;;
12469;SDS011;36499;46.484;13.832;2023-11-18T06:16:42;2.80;;;1.20;;
12469;SDS011;36499;46.484;13.832;2023-11-18T06:19:09;2.60;;;1.10;;
12469;SDS011;36499;46.484;13.832;2023-11-18T06:21:36;4.20;;;1.60;;
12469;SDS011;36499;46.484;13.832;2023-11-18T06:24:03;1.00;;;0.90;;
12469;SDS011;36499;46.484;13.832;2023-11-18T06:26:32;1.00;;;0.90;;
12469;SDS011;36499;46.484;13.832;2023-11-18T06:29:01;1.67;;;1.13;;
12469;SDS011;36499;46.484;13.832;2023-11-18T06:31:29;1.43;;;1.00;;
12469;SDS011;36499;46.484;13.832;2023-11-18T06:33:56;1.40;;;1.00;;
12469;SDS011;36499;46.484;13.832;2023-11-18T06:36:22;3.00;;;1.23;;
12469;SDS011;36499;46.484;13.832;2023-11-18T06:38:52;2.20;;;1.23;;
12469;SDS011;36499;46.484;13.832;2023-11-18T06:41:19;1.40;;;1.13;;
12469;SDS011;36499;46.484;13.832;2023-11-18T06:43:49;3.33;;;1.10;;
12469;SDS011;36499;46.484;13.832;2023-11-18T06:46:26;2.93;;;1.80;;
12469;SDS011;36499;46.484;13.832;2023-11-18T06:48:56;10.23;;;5.27;;
12469;SDS011;36499;46.484;13.832;2023-11-18T06:51:24;11.53;;;4.73;;
12469;SDS011;36499;46.484;13.832;2023-11-18T06:53:52;8.50;;;3.40;;
12469;SDS011;36499;46.484;13.832;2023-11-18T06:56:20;6.23;;;2.93;;
12469;SDS011;36499;46.484;13.832;2023-11-18T06:58:47;10.60;;;3.40;;
12469;SDS011;36499;46.484;13.832;2023-11-18T07:01:15;10.97;;;3.70;;
12469;SDS011;36499;46.484;13.832;2023-11-18T07:03:43;8.40;;;4.70;;
12469;SDS011;36499;46.484;13.832;2023-11-18T07:06:11;5.77;;;2.23;;
12469;SDS011;36499;46.484;13.832;2023-11-18T07:08:39;6.53;;;2.43;;
12469;SDS011;36499;46.484;13.832;2023-11-18T07:11:06;3.70;;;2.10;;
12469;SDS011;36499;46.484;13.832;2023-11-18T07:13:33;3.70;;;2.20;;
12469;SDS011;36499;46.484;13.832;2023-11-18T07:16:00;5.73;;;2.70;;
12469;SDS011;36499;46.484;13.832;2023-11-18T07:18:29;4.23;;;3.13;;
12469;SDS011;36499;46.484;13.832;2023-11-18T07:20:56;6.67;;;3.33;;
12469;SDS011;36499;46.484;13.832;2023-11-18T07:23:25;5.33;;;3.00;;
12469;SDS011;36499;46.484;13.832;2023-11-18T07:25:52;5.30;;;3.30;;
12469;SDS011;36499;46.484;13.832;2023-11-18T07:28:19;5.53;;;3.20;;
12469;SDS011;36499;46.484;13.832;2023-11-18T07:34:19;5.40;;;3.00;;
12469;SDS011;36499;46.484;13.832;2023-11-18T07:36:46;6.60;;;2.80;;
12469;SDS011;36499;46.484;13.832;2023-11-18T07:39:13;5.47;;;3.00;;
12469;SDS011;36499;46.484;13.832;2023-11-18T07:41:45;5.57;;;2.83;;
12469;SDS011;36499;46.484;13.832;2023-11-18T07:44:12;4.83;;;2.67;;
12469;SDS011;36499;46.484;13.832;2023-11-18T07:46:40;3.63;;;2.70;;
12469;SDS011;36499;46.484;13.832;2023-11-18T07:49:08;5.90;;;2.43;;
12469;SDS011;36499;46.484;13.832;2023-11-18T07:51:36;4.53;;;2.30;;
12469;SDS011;36499;46.484;13.832;2023-11-18T07:54:03;2.77;;;1.93;;
12469;SDS011;36499;46.484;13.832;2023-11-18T07:56:30;5.33;;;2.20;;
12469;SDS011;36499;46.484;13.832;2023-11-18T07:58:57;3.10;;;2.07;;
12469;SDS011;36499;46.484;13.832;2023-11-18T08:01:24;3.60;;;1.97;;
12469;SDS011;36499;46.484;13.832;2023-11-18T08:03:52;2.97;;;1.93;;
12469;SDS011;36499;46.484;13.832;2023-11-18T08:06:19;4.40;;;1.60;;
12469;SDS011;36499;46.484;13.832;2023-11-18T08:08:47;2.77;;;1.87;;
12469;SDS011;36499;46.484;13.832;2023-11-18T08:11:14;4.03;;;2.20;;
12469;SDS011;36499;46.484;13.832;2023-11-18T08:13:42;3.73;;;2.27;;
12469;SDS011;36499;46.484;13.832;2023-11-18T08:16:09;5.37;;;2.87;;
12469;SDS011;36499;46.484;13.832;2023-11-18T08:18:37;4.67;;;2.73;;
12469;SDS011;36499;46.484;13.832;2023-11-18T08:21:04;3.93;;;2.47;;
12469;SDS011;36499;46.484;13.832;2023-11-18T08:23:32;6.93;;;3.40;;
12469;SDS011;36499;46.484;13.832;2023-11-18T08:26:00;10.57;;;3.87;;
12469;SDS011;36499;46.484;13.832;2023-11-18T08:28:27;5.27;;;2.97;;
12469;SDS011;36499;46.484;13.832;2023-11-18T08:30:54;7.30;;;3.47;;
12469;SDS011;36499;46.484;13.832;2023-11-18T08:33:21;5.87;;;3.27;;
12469;SDS011;36499;46.484;13.832;2023-11-18T08:35:49;4.27;;;1.63;;
12469;SDS011;36499;46.484;13.832;2023-11-18T08:38:16;2.57;;;1.63;;
12469;SDS011;36499;46.484;13.832;2023-11-18T08:40:43;3.20;;;1.30;;
12469;SDS011;36499;46.484;13.832;2023-11-18T08:43:11;1.03;;;0.93;;
12469;SDS011;36499;46.484;13.832;2023-11-18T08:45:38;1.00;;;0.70;;
12469;SDS011;36499;46.484;13.832;2023-11-18T08:48:06;0.60;;;0.60;;
12469;SDS011;36499;46.484;13.832;2023-11-18T08:50:33;0.60;;;0.60;;
12469;SDS011;36499;46.484;13.832;2023-11-18T08:53:01;3.20;;;0.70;;
12469;SDS011;36499;46.484;13.832;2023-11-18T08:55:29;0.40;;;0.40;;
12469;SDS011;36499;46.484;13.832;2023-11-18T08:58:16;0.30;;;0.30;;
12469;SDS011;36499;46.484;13.832;2023-11-18T09:00:45;0.40;;;0.40;;
12469;SDS011;36499;46.484;13.832;2023-11-18T09:03:13;0.43;;;0.40;;
12469;SDS011;36499;46.484;13.832;2023-11-18T09:05:49;0.70;;;0.70;;
12469;SDS011;36499;46.484;13.832;2023-11-18T09:08:26;3.93;;;1.03;;
12469;SDS011;36499;46.484;13.832;2023-11-18T09:10:57;2.90;;;2.00;;
12469;SDS011;36499;46.484;13.832;2023-11-18T09:13:26;1.40;;;1.30;;
12469;SDS011;36499;46.484;13.832;2023-11-18T09:15:55;3.40;;;1.57;;
12469;SDS011;36499;46.484;13.832;2023-11-18T09:18:22;2.80;;;1.63;;
12469;SDS011;36499;46.484;13.832;2023-11-18T09:20:50;2.23;;;0.80;;
12469;SDS011;36499;46.484;13.832;2023-11-18T09:23:17;0.40;;;0.40;;
12469;SDS011;36499;46.484;13.832;2023-11-18T09:25:45;3.03;;;0.50;;
12469;SDS011;36499;46.484;13.832;2023-11-18T09:28:13;0.77;;;0.43;;
12469;SDS011;36499;46.484;13.832;2023-11-18T09:30:42;1.00;;;0.90;;
12469;SDS011;36499;46.484;13.832;2023-11-18T09:33:16;1.33;;;1.03;;
12469;SDS011;36499;46.484;13.832;2023-11-18T09:35:50;1.47;;;1.00;;
12469;SDS011;36499;46.484;13.832;2023-11-18T09:38:21;0.37;;;0.37;;
12469;SDS011;36499;46.484;13.832;2023-11-18T09:40:49;1.00;;;0.80;;
12469;SDS011;36499;46.484;13.832;2023-11-18T09:43:18;0.80;;;0.33;;
12469;SDS011;36499;46.484;13.832;2023-11-18T09:45:48;0.20;;;0.20;;
12469;SDS011;36499;46.484;13.832;2023-11-18T09:48:20;0.27;;;0.27;;
12469;SDS011;36499;46.484;13.832;2023-11-18T09:50:51;0.20;;;0.20;;
12469;SDS011;36499;46.484;13.832;2023-11-18T09:53:18;0.30;;;0.30;;
12469;SDS011;36499;46.484;13.832;2023-11-18T09:55:49;0.30;;;0.30;;
12469;SDS011;36499;46.484;13.832;2023-11-18T09:58:20;0.30;;;0.30;;
12469;SDS011;36499;46.484;13.832;2023-11-18T10:00:50;0.30;;;0.30;;
12469;SDS011;36499;46.484;13.832;2023-11-18T10:03:24;0.30;;;0.30;;
12469;SDS011;36499;46.484;13.832;2023-11-18T10:05:51;0.57;;;0.50;;
12469;SDS011;36499;46.484;13.832;2023-11-18T10:08:20;0.30;;;0.30;;
12469;SDS011;36499;46.484;13.832;2023-11-18T10:10:51;0.30;;;0.30;;
12469;SDS011;36499;46.484;13.832;2023-11-18T10:13:30;0.30;;;0.30;;
12469;SDS011;36499;46.484;13.832;2023-11-18T10:16:01;0.30;;;0.30;;
12469;SDS011;36499;46.484;13.832;2023-11-18T10:18:30;0.30;;;0.30;;
12469;SDS011;36499;46.484;13.832;2023-11-18T10:21:01;0.20;;;0.20;;
12469;SDS011;36499;46.484;13.832;2023-11-18T10:23:29;0.40;;;0.40;;
12469;SDS011;36499;46.484;13.832;2023-11-18T10:25:59;0.30;;;0.30;;
12469;SDS011;36499;46.484;13.832;2023-11-18T10:28:28;0.50;;;0.30;;
12469;SDS011;36499;46.484;13.832;2023-11-18T10:30:58;0.43;;;0.40;;
12469;SDS011;36499;46.484;13.832;2023-11-18T10:33:30;0.20;;;0.20;;
12469;SDS011;36499;46.484;13.832;2023-11-18T10:35:57;0.30;;;0.30;;
12469;SDS011;36499;46.484;13.832;2023-11-18T10:38:28;0.37;;;0.37;;
12469;SDS011;36499;46.484;13.832;2023-11-18T10:40:56;0.40;;;0.40;;
12469;SDS011;36499;46.484;13.832;2023-11-18T10:43:26;0.30;;;0.30;;
12469;SDS011;36499;46.484;13.832;2023-11-18T10:46:04;0.40;;;0.40;;
12469;SDS011;36499;46.484;13.832;2023-11-18T10:48:38;0.30;;;0.30;;
12469;SDS011;36499;46.484;13.832;2023-11-18T10:51:08;0.40;;;0.40;;
12469;SDS011;36499;46.484;13.832;2023-11-18T10:53:38;0.40;;;0.40;;
12469;SDS011;36499;46.484;13.832;2023-11-18T10:56:16;0.20;;;0.20;;
12469;SDS011;36499;46.484;13.832;2023-11-18T10:58:44;0.30;;;0.30;;
12469;SDS011;36499;46.484;13.832;2023-11-18T11:01:11;0.30;;;0.30;;
12469;SDS011;36499;46.484;13.832;2023-11-18T11:03:49;0.30;;;0.30;;
12469;SDS011;36499;46.484;13.832;2023-11-18T11:06:20;0.30;;;0.30;;
12469;SDS011;36499;46.484;13.832;2023-11-18T11:08:48;0.33;;;0.33;;
12469;SDS011;36499;46.484;13.832;2023-11-18T11:11:16;0.30;;;0.30;;
12469;SDS011;36499;46.484;13.832;2023-11-18T11:13:46;0.40;;;0.40;;
12469;SDS011;36499;46.484;13.832;2023-11-18T11:16:16;0.40;;;0.40;;
12469;SDS011;36499;46.484;13.832;2023-11-18T11:18:47;0.30;;;0.30;;
12469;SDS011;36499;46.484;13.832;2023-11-18T11:21:21;0.30;;;0.30;;
12469;SDS011;36499;46.484;13.832;2023-11-18T11:23:53;0.30;;;0.30;;
12469;SDS011;36499;46.484;13.832;2023-11-18T11:26:31;0.30;;;0.30;;
12469;SDS011;36499;46.484;13.832;2023-11-18T11:29:10;0.30;;;0.30;;
12469;SDS011;36499;46.484;13.832;2023-11-18T11:31:45;0.30;;;0.30;;
12469;SDS011;36499;46.484;13.832;2023-11-18T11:34:17;0.40;;;0.40;;
12469;SDS011;36499;46.484;13.832;2023-11-18T11:36:47;0.30;;;0.30;;
12469;SDS011;36499;46.484;13.832;2023-11-18T11:39:16;0.40;;;0.40;;
12469;SDS011;36499;46.484;13.832;2023-11-18T11:41:52;0.30;;;0.30;;
12469;SDS011;36499;46.484;13.832;2023-11-18T11:44:21;0.20;;;0.20;;
12469;SDS011;36499;46.484;13.832;2023-11-18T11:46:54;0.30;;;0.30;;
12469;SDS011;36499;46.484;13.832;2023-11-18T11:49:22;0.40;;;0.40;;
12469;SDS011;36499;46.484;13.832;2023-11-18T11:51:56;0.30;;;0.30;;
12469;SDS011;36499;46.484;13.832;2023-11-18T11:54:29;0.43;;;0.43;;
12469;SDS011;36499;46.484;13.832;2023-11-18T11:57:03;0.50;;;0.40;;
12469;SDS011;36499;46.484;13.832;2023-11-18T11:59:34;0.40;;;0.40;;
12469;SDS011;36499;46.484;13.832;2023-11-18T12:02:03;0.30;;;0.30;;
12469;SDS011;36499;46.484;13.832;2023-11-18T12:04:32;0.40;;;0.40;;
12469;SDS011;36499;46.484;13.832;2023-11-18T12:07:04;0.40;;;0.40;;
12469;SDS011;36499;46.484;13.832;2023-11-18T12:09:34;0.33;;;0.33;;
12469;SDS011;36499;46.484;13.832;2023-11-18T12:12:04;0.30;;;0.30;;
12469;SDS011;36499;46.484;13.832;2023-11-18T12:14:48;1.37;;;0.40;;
12469;SDS011;36499;46.484;13.832;2023-11-18T12:17:16;0.33;;;0.33;;
12469;SDS011;36499;46.484;13.832;2023-11-18T12:19:46;0.30;;;0.30;;
12469;SDS011;36499;46.484;13.832;2023-11-18T12:22:15;0.30;;;0.30;;
12469;SDS011;36499;46.484;13.832;2023-11-18T12:27:58;0.37;;;0.37;;
12469;SDS011;36499;46.484;13.832;2023-11-18T12:30:41;0.40;;;0.40;;
12469;SDS011;36499;46.484;13.832;2023-11-18T12:36:37;0.50;;;0.50;;
12469;SDS011;36499;46.484;13.832;2023-11-18T12:43:00;0.30;;;0.30;;
12469;SDS011;36499;46.484;13.832;2023-11-18T12:48:39;0.40;;;0.40;;
12469;SDS011;36499;46.484;13.832;2023-11-18T12:51:11;0.40;;;0.40;;
12469;SDS011;36499;46.484;13.832;2023-11-18T12:53:45;0.40;;;0.40;;
12469;SDS011;36499;46.484;13.832;2023-11-18T12:56:15;0.30;;;0.30;;
12469;SDS011;36499;46.484;13.832;2023-11-18T12:58:46;0.50;;;0.33;;
12469;SDS011;36499;46.484;13.832;2023-11-18T13:01:13;2.30;;;0.87;;
12469;SDS011;36499;46.484;13.832;2023-11-18T13:03:41;0.33;;;0.33;;
12469;SDS011;36499;46.484;13.832;2023-11-18T13:06:08;0.57;;;0.33;;
12469;SDS011;36499;46.484;13.832;2023-11-18T13:08:37;0.43;;;0.43;;
12469;SDS011;36499;46.484;13.832;2023-11-18T13:11:04;3.90;;;1.30;;
12469;SDS011;36499;46.484;13.832;2023-11-18T13:13:37;8.73;;;2.60;;
12469;SDS011;36499;46.484;13.832;2023-11-18T13:16:06;3.40;;;1.20;;
12469;SDS011;36499;46.484;13.832;2023-11-18T13:18:43;0.77;;;0.60;;
12469;SDS011;36499;46.484;13.832;2023-11-18T13:21:14;1.70;;;1.07;;
12469;SDS011;36499;46.484;13.832;2023-11-18T13:23:45;7.50;;;2.93;;
12469;SDS011;36499;46.484;13.832;2023-11-18T13:26:13;6.73;;;2.27;;
12469;SDS011;36499;46.484;13.832;2023-11-18T13:28:40;4.83;;;2.00;;
12469;SDS011;36499;46.484;13.832;2023-11-18T13:31:10;2.17;;;1.00;;
12469;SDS011;36499;46.484;13.832;2023-11-18T13:33:41;1.10;;;0.80;;
12469;SDS011;36499;46.484;13.832;2023-11-18T13:36:09;4.00;;;1.20;;
12469;SDS011;36499;46.484;13.832;2023-11-18T13:38:36;1.43;;;0.97;;
12469;SDS011;36499;46.484;13.832;2023-11-18T13:41:03;7.33;;;1.63;;
12469;SDS011;36499;46.484;13.832;2023-11-18T13:43:42;7.80;;;1.63;;
12469;SDS011;36499;46.484;13.832;2023-11-18T13:46:12;2.17;;;1.10;;
12469;SDS011;36499;46.484;13.832;2023-11-18T13:48:39;1.27;;;0.60;;
12469;SDS011;36499;46.484;13.832;2023-11-18T13:51:07;0.80;;;0.80;;
12469;SDS011;36499;46.484;13.832;2023-11-18T13:53:38;1.43;;;1.00;;
12469;SDS011;36499;46.484;13.832;2023-11-18T13:56:06;0.97;;;0.70;;
12469;SDS011;36499;46.484;13.832;2023-11-18T13:58:34;0.50;;;0.50;;
12469;SDS011;36499;46.484;13.832;2023-11-18T14:01:04;3.40;;;1.70;;
12469;SDS011;36499;46.484;13.832;2023-11-18T14:03:33;1.37;;;1.00;;
12469;SDS011;36499;46.484;13.832;2023-11-18T14:06:02;1.90;;;0.77;;
12469;SDS011;36499;46.484;13.832;2023-11-18T14:08:29;0.43;;;0.43;;
12469;SDS011;36499;46.484;13.832;2023-11-18T14:10:56;0.40;;;0.40;;
12469;SDS011;36499;46.484;13.832;2023-11-18T14:13:22;0.77;;;0.70;;
12469;SDS011;36499;46.484;13.832;2023-11-18T14:15:49;0.50;;;0.40;;
12469;SDS011;36499;46.484;13.832;2023-11-18T14:18:20;0.53;;;0.53;;
12469;SDS011;36499;46.484;13.832;2023-11-18T14:20:48;0.50;;;0.50;;
12469;SDS011;36499;46.484;13.832;2023-11-18T14:23:15;3.20;;;0.90;;
12469;SDS011;36499;46.484;13.832;2023-11-18T14:25:43;2.53;;;1.17;;
12469;SDS011;36499;46.484;13.832;2023-11-18T14:28:10;1.00;;;1.00;;
12469;SDS011;36499;46.484;13.832;2023-11-18T14:30:38;1.70;;;1.50;;
12469;SDS011;36499;46.484;13.832;2023-11-18T14:33:05;1.23;;;1.13;;
12469;SDS011;36499;46.484;13.832;2023-11-18T14:35:32;0.70;;;0.70;;
12469;SDS011;36499;46.484;13.832;2023-11-18T14:38:00;0.40;;;0.40;;
12469;SDS011;36499;46.484;13.832;2023-11-18T14:40:27;0.50;;;0.50;;
12469;SDS011;36499;46.484;13.832;2023-11-18T14:42:54;0.67;;;0.67;;
12469;SDS011;36499;46.484;13.832;2023-11-18T14:45:22;1.00;;;0.70;;
12469;SDS011;36499;46.484;13.832;2023-11-18T14:47:48;2.13;;;1.20;;
12469;SDS011;36499;46.484;13.832;2023-11-18T14:50:18;2.50;;;2.13;;
12469;SDS011;36499;46.484;13.832;2023-11-18T14:52:46;2.23;;;2.03;;
12469;SDS011;36499;46.484;13.832;2023-11-18T14:55:15;2.70;;;2.10;;
12469;SDS011;36499;46.484;13.832;2023-11-18T14:57:42;0.60;;;0.60;;
12469;SDS011;36499;46.484;13.832;2023-11-18T15:00:10;17.80;;;5.70;;